Cancun, ROO, Mexico
Current Conditions -  °F | °C
As of 4:47 AM on Monday 20 Oct 2014 (Local Time) from MMUN Reporting Station
Broken Clouds Broken Clouds  
Wind Chill: 72°   Ceiling: 7000
Heat Index: 72°   Visibility: 6mi
Dew Point: 72°   Wind: 6mph
Humidity: 100%   Direction: 50°NE
Pressure: 29.88"   Gusts: NA
Location:  21.17°N, 86.83°W
Report Text: MMUN 200947Z 05005KT 6SM BKN070 22/22 A2988 RMK 8/060
Loading
Personal Weather Stations






























Interactive Weather Map
Tropical Storm Tracking
New forecast layout! Learn more

10-Day Weather Forecast

Advertisements
Track Severe Weather on mobile